sensor_id;sensor_type;location;lat;lon;timestamp;P1;durP1;ratioP1;P2;durP2;ratioP2
31920;SDS011;66485;52.128;4.436;2023-07-24T00:02:12;4.18;;;2.83;;
31920;SDS011;66485;52.128;4.436;2023-07-24T00:04:38;4.15;;;2.88;;
31920;SDS011;66485;52.128;4.436;2023-07-24T00:07:03;4.03;;;2.67;;
31920;SDS011;66485;52.128;4.436;2023-07-24T00:09:29;4.78;;;3.00;;
31920;SDS011;66485;52.128;4.436;2023-07-24T00:11:54;4.65;;;2.90;;
31920;SDS011;66485;52.128;4.436;2023-07-24T00:14:20;6.00;;;3.28;;
31920;SDS011;66485;52.128;4.436;2023-07-24T00:16:45;4.32;;;2.72;;
31920;SDS011;66485;52.128;4.436;2023-07-24T00:19:10;4.47;;;2.80;;
31920;SDS011;66485;52.128;4.436;2023-07-24T00:21:36;4.43;;;3.00;;
31920;SDS011;66485;52.128;4.436;2023-07-24T00:24:01;4.90;;;3.25;;
31920;SDS011;66485;52.128;4.436;2023-07-24T00:26:26;4.82;;;2.58;;
31920;SDS011;66485;52.128;4.436;2023-07-24T00:28:52;4.20;;;2.90;;
31920;SDS011;66485;52.128;4.436;2023-07-24T00:31:17;6.90;;;3.60;;
31920;SDS011;66485;52.128;4.436;2023-07-24T00:33:42;4.63;;;2.83;;
31920;SDS011;66485;52.128;4.436;2023-07-24T00:36:08;4.40;;;2.90;;
31920;SDS011;66485;52.128;4.436;2023-07-24T00:38:33;5.05;;;3.15;;
31920;SDS011;66485;52.128;4.436;2023-07-24T00:40:58;5.35;;;2.88;;
31920;SDS011;66485;52.128;4.436;2023-07-24T00:43:24;4.18;;;2.75;;
31920;SDS011;66485;52.128;4.436;2023-07-24T00:45:49;4.60;;;2.75;;
31920;SDS011;66485;52.128;4.436;2023-07-24T00:48:15;4.70;;;3.08;;
31920;SDS011;66485;52.128;4.436;2023-07-24T00:50:41;5.88;;;3.50;;
31920;SDS011;66485;52.128;4.436;2023-07-24T00:53:08;4.35;;;2.72;;
31920;SDS011;66485;52.128;4.436;2023-07-24T00:55:35;5.15;;;2.90;;
31920;SDS011;66485;52.128;4.436;2023-07-24T00:58:00;4.53;;;2.80;;
31920;SDS011;66485;52.128;4.436;2023-07-24T01:00:27;4.22;;;2.60;;
31920;SDS011;66485;52.128;4.436;2023-07-24T01:02:53;4.43;;;2.92;;
31920;SDS011;66485;52.128;4.436;2023-07-24T01:05:19;4.90;;;3.08;;
31920;SDS011;66485;52.128;4.436;2023-07-24T01:07:45;4.07;;;2.75;;
31920;SDS011;66485;52.128;4.436;2023-07-24T01:10:10;5.05;;;2.90;;
31920;SDS011;66485;52.128;4.436;2023-07-24T01:12:38;4.30;;;3.00;;
31920;SDS011;66485;52.128;4.436;2023-07-24T01:18:03;5.10;;;3.20;;
31920;SDS011;66485;52.128;4.436;2023-07-24T01:20:33;4.30;;;2.67;;
31920;SDS011;66485;52.128;4.436;2023-07-24T01:25:47;4.60;;;3.05;;
31920;SDS011;66485;52.128;4.436;2023-07-24T01:28:18;4.57;;;2.95;;
31920;SDS011;66485;52.128;4.436;2023-07-24T01:30:44;3.80;;;2.67;;
31920;SDS011;66485;52.128;4.436;2023-07-24T01:33:09;4.55;;;2.90;;
31920;SDS011;66485;52.128;4.436;2023-07-24T01:35:34;4.63;;;2.50;;
31920;SDS011;66485;52.128;4.436;2023-07-24T01:38:01;4.68;;;2.92;;
31920;SDS011;66485;52.128;4.436;2023-07-24T01:40:28;3.95;;;2.80;;
31920;SDS011;66485;52.128;4.436;2023-07-24T01:42:54;4.32;;;2.92;;
31920;SDS011;66485;52.128;4.436;2023-07-24T01:45:19;4.28;;;2.92;;
31920;SDS011;66485;52.128;4.436;2023-07-24T01:47:45;4.30;;;2.80;;
31920;SDS011;66485;52.128;4.436;2023-07-24T01:50:10;5.13;;;3.30;;
31920;SDS011;66485;52.128;4.436;2023-07-24T01:52:36;4.32;;;2.83;;
31920;SDS011;66485;52.128;4.436;2023-07-24T01:55:01;4.05;;;2.45;;
31920;SDS011;66485;52.128;4.436;2023-07-24T01:57:26;4.05;;;2.63;;
31920;SDS011;66485;52.128;4.436;2023-07-24T01:59:52;4.68;;;2.92;;
31920;SDS011;66485;52.128;4.436;2023-07-24T02:02:17;4.25;;;2.78;;
31920;SDS011;66485;52.128;4.436;2023-07-24T02:04:42;5.30;;;3.30;;
31920;SDS011;66485;52.128;4.436;2023-07-24T02:07:08;4.43;;;2.80;;
31920;SDS011;66485;52.128;4.436;2023-07-24T02:09:34;4.10;;;2.63;;
31920;SDS011;66485;52.128;4.436;2023-07-24T02:11:59;5.47;;;2.90;;
31920;SDS011;66485;52.128;4.436;2023-07-24T02:14:25;4.40;;;3.28;;
31920;SDS011;66485;52.128;4.436;2023-07-24T02:16:51;4.70;;;2.97;;
31920;SDS011;66485;52.128;4.436;2023-07-24T02:19:17;4.18;;;2.90;;
31920;SDS011;66485;52.128;4.436;2023-07-24T02:21:42;4.93;;;2.83;;
31920;SDS011;66485;52.128;4.436;2023-07-24T02:24:07;5.25;;;2.70;;
31920;SDS011;66485;52.128;4.436;2023-07-24T02:26:33;4.10;;;2.75;;
31920;SDS011;66485;52.128;4.436;2023-07-24T02:28:58;4.78;;;2.72;;
31920;SDS011;66485;52.128;4.436;2023-07-24T02:31:24;5.25;;;3.10;;
31920;SDS011;66485;52.128;4.436;2023-07-24T02:33:49;4.43;;;2.83;;
31920;SDS011;66485;52.128;4.436;2023-07-24T02:36:14;5.07;;;3.10;;
31920;SDS011;66485;52.128;4.436;2023-07-24T02:38:40;5.22;;;2.97;;
31920;SDS011;66485;52.128;4.436;2023-07-24T02:41:05;6.28;;;3.20;;
31920;SDS011;66485;52.128;4.436;2023-07-24T02:43:31;5.05;;;2.90;;
31920;SDS011;66485;52.128;4.436;2023-07-24T02:45:59;4.50;;;2.92;;
31920;SDS011;66485;52.128;4.436;2023-07-24T02:48:26;5.13;;;2.90;;
31920;SDS011;66485;52.128;4.436;2023-07-24T02:50:52;3.85;;;2.67;;
31920;SDS011;66485;52.128;4.436;2023-07-24T02:53:17;5.72;;;2.90;;
31920;SDS011;66485;52.128;4.436;2023-07-24T02:55:43;5.50;;;3.05;;
31920;SDS011;66485;52.128;4.436;2023-07-24T02:58:08;4.75;;;3.17;;
31920;SDS011;66485;52.128;4.436;2023-07-24T03:00:34;4.68;;;3.10;;
31920;SDS011;66485;52.128;4.436;2023-07-24T03:02:59;5.88;;;2.90;;
31920;SDS011;66485;52.128;4.436;2023-07-24T03:05:24;6.32;;;3.17;;
31920;SDS011;66485;52.128;4.436;2023-07-24T03:07:50;6.85;;;3.20;;
31920;SDS011;66485;52.128;4.436;2023-07-24T03:10:15;4.88;;;2.70;;
31920;SDS011;66485;52.128;4.436;2023-07-24T03:12:40;4.68;;;2.92;;
31920;SDS011;66485;52.128;4.436;2023-07-24T03:15:06;4.07;;;2.72;;
31920;SDS011;66485;52.128;4.436;2023-07-24T03:17:32;4.82;;;2.92;;
31920;SDS011;66485;52.128;4.436;2023-07-24T03:19:58;5.03;;;2.90;;
31920;SDS011;66485;52.128;4.436;2023-07-24T03:22:24;5.18;;;2.80;;
31920;SDS011;66485;52.128;4.436;2023-07-24T03:24:49;4.57;;;3.28;;
31920;SDS011;66485;52.128;4.436;2023-07-24T03:27:14;4.75;;;2.65;;
31920;SDS011;66485;52.128;4.436;2023-07-24T03:29:40;4.45;;;2.70;;
31920;SDS011;66485;52.128;4.436;2023-07-24T03:32:06;3.90;;;2.63;;
31920;SDS011;66485;52.128;4.436;2023-07-24T03:34:32;4.07;;;2.60;;
31920;SDS011;66485;52.128;4.436;2023-07-24T03:36:57;5.25;;;3.05;;
31920;SDS011;66485;52.128;4.436;2023-07-24T03:39:22;4.43;;;2.85;;
31920;SDS011;66485;52.128;4.436;2023-07-24T03:41:48;5.00;;;3.28;;
31920;SDS011;66485;52.128;4.436;2023-07-24T03:44:14;4.88;;;2.97;;
31920;SDS011;66485;52.128;4.436;2023-07-24T03:46:39;4.35;;;3.00;;
31920;SDS011;66485;52.128;4.436;2023-07-24T03:49:05;4.72;;;2.80;;
31920;SDS011;66485;52.128;4.436;2023-07-24T03:51:30;4.70;;;2.58;;
31920;SDS011;66485;52.128;4.436;2023-07-24T03:53:56;5.38;;;2.80;;
31920;SDS011;66485;52.128;4.436;2023-07-24T03:56:21;4.78;;;2.97;;
31920;SDS011;66485;52.128;4.436;2023-07-24T03:58:46;4.57;;;3.30;;
31920;SDS011;66485;52.128;4.436;2023-07-24T04:01:11;4.90;;;3.00;;
31920;SDS011;66485;52.128;4.436;2023-07-24T04:03:37;4.38;;;2.83;;
31920;SDS011;66485;52.128;4.436;2023-07-24T04:06:02;4.55;;;2.90;;
31920;SDS011;66485;52.128;4.436;2023-07-24T04:08:28;4.00;;;2.60;;
31920;SDS011;66485;52.128;4.436;2023-07-24T04:10:53;4.20;;;2.60;;
31920;SDS011;66485;52.128;4.436;2023-07-24T04:13:21;4.22;;;2.63;;
31920;SDS011;66485;52.128;4.436;2023-07-24T04:15:46;4.07;;;2.83;;
31920;SDS011;66485;52.128;4.436;2023-07-24T04:18:12;4.25;;;2.80;;
31920;SDS011;66485;52.128;4.436;2023-07-24T04:20:37;4.53;;;2.88;;
31920;SDS011;66485;52.128;4.436;2023-07-24T04:23:02;4.53;;;3.00;;
31920;SDS011;66485;52.128;4.436;2023-07-24T04:25:28;4.18;;;2.92;;
31920;SDS011;66485;52.128;4.436;2023-07-24T04:27:53;3.83;;;2.60;;
31920;SDS011;66485;52.128;4.436;2023-07-24T04:30:19;4.43;;;2.78;;
31920;SDS011;66485;52.128;4.436;2023-07-24T04:32:44;5.90;;;3.28;;
31920;SDS011;66485;52.128;4.436;2023-07-24T04:35:11;4.00;;;2.80;;
31920;SDS011;66485;52.128;4.436;2023-07-24T04:37:36;4.32;;;2.95;;
31920;SDS011;66485;52.128;4.436;2023-07-24T04:40:01;4.25;;;2.40;;
31920;SDS011;66485;52.128;4.436;2023-07-24T04:42:27;5.07;;;2.80;;
31920;SDS011;66485;52.128;4.436;2023-07-24T04:44:54;3.40;;;2.67;;
31920;SDS011;66485;52.128;4.436;2023-07-24T04:47:19;4.45;;;3.00;;
31920;SDS011;66485;52.128;4.436;2023-07-24T04:49:44;4.00;;;2.78;;
31920;SDS011;66485;52.128;4.436;2023-07-24T04:52:09;4.65;;;3.03;;
31920;SDS011;66485;52.128;4.436;2023-07-24T04:54:35;5.25;;;2.80;;
31920;SDS011;66485;52.128;4.436;2023-07-24T04:57:00;5.57;;;2.80;;
31920;SDS011;66485;52.128;4.436;2023-07-24T04:59:25;5.40;;;2.95;;
31920;SDS011;66485;52.128;4.436;2023-07-24T05:01:51;4.13;;;2.70;;
31920;SDS011;66485;52.128;4.436;2023-07-24T05:04:16;4.70;;;2.75;;
31920;SDS011;66485;52.128;4.436;2023-07-24T05:06:41;4.82;;;3.22;;
31920;SDS011;66485;52.128;4.436;2023-07-24T05:09:07;6.95;;;3.00;;
31920;SDS011;66485;52.128;4.436;2023-07-24T05:11:32;5.45;;;3.05;;
31920;SDS011;66485;52.128;4.436;2023-07-24T05:13:57;4.53;;;2.83;;
31920;SDS011;66485;52.128;4.436;2023-07-24T05:16:23;5.20;;;2.78;;
31920;SDS011;66485;52.128;4.436;2023-07-24T05:18:48;4.65;;;2.70;;
31920;SDS011;66485;52.128;4.436;2023-07-24T05:21:13;5.10;;;3.57;;
31920;SDS011;66485;52.128;4.436;2023-07-24T05:23:39;4.05;;;2.83;;
31920;SDS011;66485;52.128;4.436;2023-07-24T05:26:04;5.18;;;2.90;;
31920;SDS011;66485;52.128;4.436;2023-07-24T05:28:30;4.35;;;2.85;;
31920;SDS011;66485;52.128;4.436;2023-07-24T05:31:00;4.63;;;3.00;;
31920;SDS011;66485;52.128;4.436;2023-07-24T05:33:29;4.85;;;2.78;;
31920;SDS011;66485;52.128;4.436;2023-07-24T05:36:02;4.13;;;2.95;;
31920;SDS011;66485;52.128;4.436;2023-07-24T05:38:28;5.40;;;2.88;;
31920;SDS011;66485;52.128;4.436;2023-07-24T05:40:57;4.80;;;2.63;;
31920;SDS011;66485;52.128;4.436;2023-07-24T05:43:24;5.03;;;3.03;;
31920;SDS011;66485;52.128;4.436;2023-07-24T05:45:50;4.57;;;2.50;;
31920;SDS011;66485;52.128;4.436;2023-07-24T05:48:16;4.25;;;2.75;;
31920;SDS011;66485;52.128;4.436;2023-07-24T05:50:42;6.05;;;2.83;;
31920;SDS011;66485;52.128;4.436;2023-07-24T05:53:07;4.90;;;3.05;;
31920;SDS011;66485;52.128;4.436;2023-07-24T05:55:33;4.80;;;2.83;;
31920;SDS011;66485;52.128;4.436;2023-07-24T05:57:58;3.97;;;2.85;;
31920;SDS011;66485;52.128;4.436;2023-07-24T06:00:23;4.28;;;2.75;;
31920;SDS011;66485;52.128;4.436;2023-07-24T06:02:49;3.95;;;3.00;;
31920;SDS011;66485;52.128;4.436;2023-07-24T06:05:14;6.25;;;3.03;;
31920;SDS011;66485;52.128;4.436;2023-07-24T06:07:39;5.20;;;3.13;;
31920;SDS011;66485;52.128;4.436;2023-07-24T06:10:05;5.07;;;2.75;;
31920;SDS011;66485;52.128;4.436;2023-07-24T06:12:31;4.55;;;2.70;;
31920;SDS011;66485;52.128;4.436;2023-07-24T06:14:56;4.88;;;2.92;;
31920;SDS011;66485;52.128;4.436;2023-07-24T06:17:21;4.15;;;2.70;;
31920;SDS011;66485;52.128;4.436;2023-07-24T06:19:46;4.47;;;2.83;;
31920;SDS011;66485;52.128;4.436;2023-07-24T06:22:12;4.85;;;3.03;;
31920;SDS011;66485;52.128;4.436;2023-07-24T06:24:37;4.88;;;2.90;;
31920;SDS011;66485;52.128;4.436;2023-07-24T06:27:03;5.18;;;2.80;;
31920;SDS011;66485;52.128;4.436;2023-07-24T06:29:31;4.20;;;2.78;;
31920;SDS011;66485;52.128;4.436;2023-07-24T06:31:57;4.95;;;2.72;;
31920;SDS011;66485;52.128;4.436;2023-07-24T06:34:22;4.10;;;2.78;;
31920;SDS011;66485;52.128;4.436;2023-07-24T06:36:47;3.90;;;2.70;;
31920;SDS011;66485;52.128;4.436;2023-07-24T06:39:13;3.80;;;2.38;;
31920;SDS011;66485;52.128;4.436;2023-07-24T06:41:38;5.20;;;2.90;;
31920;SDS011;66485;52.128;4.436;2023-07-24T06:44:03;4.72;;;2.75;;
31920;SDS011;66485;52.128;4.436;2023-07-24T06:46:29;6.05;;;2.72;;
31920;SDS011;66485;52.128;4.436;2023-07-24T06:48:54;4.22;;;2.70;;
31920;SDS011;66485;52.128;4.436;2023-07-24T06:51:19;4.57;;;2.65;;
31920;SDS011;66485;52.128;4.436;2023-07-24T06:53:45;4.57;;;2.97;;
31920;SDS011;66485;52.128;4.436;2023-07-24T06:56:10;6.30;;;3.08;;
31920;SDS011;66485;52.128;4.436;2023-07-24T06:58:35;5.55;;;2.80;;
31920;SDS011;66485;52.128;4.436;2023-07-24T07:01:04;4.10;;;2.67;;
31920;SDS011;66485;52.128;4.436;2023-07-24T07:03:30;5.50;;;3.25;;
31920;SDS011;66485;52.128;4.436;2023-07-24T07:05:59;5.65;;;2.95;;
31920;SDS011;66485;52.128;4.436;2023-07-24T07:08:24;4.50;;;2.67;;
31920;SDS011;66485;52.128;4.436;2023-07-24T07:10:54;4.93;;;3.08;;
31920;SDS011;66485;52.128;4.436;2023-07-24T07:13:21;4.57;;;2.80;;
31920;SDS011;66485;52.128;4.436;2023-07-24T07:15:46;4.65;;;2.80;;
31920;SDS011;66485;52.128;4.436;2023-07-24T07:18:11;4.45;;;2.80;;
31920;SDS011;66485;52.128;4.436;2023-07-24T07:20:37;4.65;;;3.13;;
31920;SDS011;66485;52.128;4.436;2023-07-24T07:23:02;3.55;;;2.65;;
31920;SDS011;66485;52.128;4.436;2023-07-24T07:25:27;4.45;;;2.75;;
31920;SDS011;66485;52.128;4.436;2023-07-24T07:27:53;4.55;;;2.63;;
31920;SDS011;66485;52.128;4.436;2023-07-24T07:30:18;4.53;;;2.78;;
31920;SDS011;66485;52.128;4.436;2023-07-24T07:32:43;4.13;;;3.00;;
31920;SDS011;66485;52.128;4.436;2023-07-24T07:35:09;4.35;;;2.83;;
31920;SDS011;66485;52.128;4.436;2023-07-24T07:37:34;4.28;;;2.70;;
31920;SDS011;66485;52.128;4.436;2023-07-24T07:39:59;4.57;;;2.65;;
31920;SDS011;66485;52.128;4.436;2023-07-24T07:42:25;4.35;;;2.90;;
31920;SDS011;66485;52.128;4.436;2023-07-24T07:44:50;4.90;;;2.88;;
31920;SDS011;66485;52.128;4.436;2023-07-24T07:47:15;4.75;;;2.80;;
31920;SDS011;66485;52.128;4.436;2023-07-24T07:49:41;5.00;;;2.67;;
31920;SDS011;66485;52.128;4.436;2023-07-24T07:52:06;4.20;;;2.50;;
31920;SDS011;66485;52.128;4.436;2023-07-24T07:54:32;5.22;;;2.90;;
31920;SDS011;66485;52.128;4.436;2023-07-24T07:56:57;5.97;;;2.80;;
31920;SDS011;66485;52.128;4.436;2023-07-24T07:59:23;4.40;;;2.90;;
31920;SDS011;66485;52.128;4.436;2023-07-24T08:01:48;4.15;;;2.80;;
31920;SDS011;66485;52.128;4.436;2023-07-24T08:04:13;4.03;;;2.80;;
31920;SDS011;66485;52.128;4.436;2023-07-24T08:06:39;4.67;;;2.97;;
31920;SDS011;66485;52.128;4.436;2023-07-24T08:09:04;5.03;;;2.78;;
31920;SDS011;66485;52.128;4.436;2023-07-24T08:11:29;4.28;;;2.88;;
31920;SDS011;66485;52.128;4.436;2023-07-24T08:13:54;4.90;;;3.00;;
31920;SDS011;66485;52.128;4.436;2023-07-24T08:16:20;4.20;;;3.03;;
31920;SDS011;66485;52.128;4.436;2023-07-24T08:18:45;5.03;;;2.60;;
31920;SDS011;66485;52.128;4.436;2023-07-24T08:21:12;4.00;;;2.80;;
31920;SDS011;66485;52.128;4.436;2023-07-24T08:23:38;5.88;;;2.90;;
31920;SDS011;66485;52.128;4.436;2023-07-24T08:26:04;5.53;;;3.40;;
31920;SDS011;66485;52.128;4.436;2023-07-24T08:28:30;4.65;;;2.50;;
31920;SDS011;66485;52.128;4.436;2023-07-24T08:30:56;6.05;;;2.90;;
31920;SDS011;66485;52.128;4.436;2023-07-24T08:35:58;5.82;;;3.20;;
31920;SDS011;66485;52.128;4.436;2023-07-24T08:38:25;4.07;;;2.63;;
31920;SDS011;66485;52.128;4.436;2023-07-24T08:40:59;5.25;;;2.40;;
31920;SDS011;66485;52.128;4.436;2023-07-24T08:43:36;4.80;;;2.58;;
31920;SDS011;66485;52.128;4.436;2023-07-24T08:46:02;5.65;;;2.70;;
31920;SDS011;66485;52.128;4.436;2023-07-24T08:48:38;5.10;;;2.83;;
31920;SDS011;66485;52.128;4.436;2023-07-24T08:51:07;5.18;;;3.10;;
31920;SDS011;66485;52.128;4.436;2023-07-24T08:53:34;6.60;;;2.92;;
31920;SDS011;66485;52.128;4.436;2023-07-24T08:56:04;4.53;;;3.05;;
31920;SDS011;66485;52.128;4.436;2023-07-24T08:58:31;6.18;;;3.25;;
31920;SDS011;66485;52.128;4.436;2023-07-24T09:00:57;4.95;;;3.22;;
31920;SDS011;66485;52.128;4.436;2023-07-24T09:03:23;4.43;;;2.65;;
31920;SDS011;66485;52.128;4.436;2023-07-24T09:05:48;4.50;;;2.67;;
31920;SDS011;66485;52.128;4.436;2023-07-24T09:08:13;5.88;;;3.00;;
31920;SDS011;66485;52.128;4.436;2023-07-24T09:10:39;5.60;;;2.78;;
31920;SDS011;66485;52.128;4.436;2023-07-24T09:13:05;4.20;;;2.83;;
31920;SDS011;66485;52.128;4.436;2023-07-24T09:15:40;4.32;;;2.90;;
31920;SDS011;66485;52.128;4.436;2023-07-24T09:18:06;4.72;;;2.70;;
31920;SDS011;66485;52.128;4.436;2023-07-24T09:20:38;5.47;;;2.75;;
31920;SDS011;66485;52.128;4.436;2023-07-24T09:23:08;5.90;;;3.05;;
31920;SDS011;66485;52.128;4.436;2023-07-24T09:25:35;4.63;;;2.83;;
31920;SDS011;66485;52.128;4.436;2023-07-24T09:28:08;5.43;;;2.60;;
31920;SDS011;66485;52.128;4.436;2023-07-24T09:30:38;3.83;;;2.67;;
31920;SDS011;66485;52.128;4.436;2023-07-24T09:33:04;4.57;;;2.92;;
31920;SDS011;66485;52.128;4.436;2023-07-24T09:35:30;3.78;;;2.67;;
31920;SDS011;66485;52.128;4.436;2023-07-24T09:38:06;4.32;;;2.75;;
31920;SDS011;66485;52.128;4.436;2023-07-24T09:40:39;3.72;;;2.60;;
31920;SDS011;66485;52.128;4.436;2023-07-24T09:45:40;5.63;;;3.13;;
31920;SDS011;66485;52.128;4.436;2023-07-24T09:48:05;4.88;;;3.00;;
31920;SDS011;66485;52.128;4.436;2023-07-24T09:50:36;5.63;;;2.95;;
31920;SDS011;66485;52.128;4.436;2023-07-24T09:53:01;4.82;;;2.80;;
31920;SDS011;66485;52.128;4.436;2023-07-24T09:55:30;4.82;;;2.85;;
31920;SDS011;66485;52.128;4.436;2023-07-24T09:58:03;4.55;;;2.70;;
31920;SDS011;66485;52.128;4.436;2023-07-24T10:00:30;4.78;;;2.65;;
31920;SDS011;66485;52.128;4.436;2023-07-24T10:02:56;5.78;;;3.25;;
31920;SDS011;66485;52.128;4.436;2023-07-24T10:05:22;5.28;;;3.30;;
31920;SDS011;66485;52.128;4.436;2023-07-24T10:07:47;4.38;;;2.88;;
31920;SDS011;66485;52.128;4.436;2023-07-24T10:10:13;4.65;;;2.83;;
31920;SDS011;66485;52.128;4.436;2023-07-24T10:12:39;5.55;;;3.15;;
31920;SDS011;66485;52.128;4.436;2023-07-24T10:15:05;3.92;;;2.63;;
31920;SDS011;66485;52.128;4.436;2023-07-24T10:20:04;7.00;;;3.00;;
31920;SDS011;66485;52.128;4.436;2023-07-24T10:22:30;8.02;;;3.03;;
31920;SDS011;66485;52.128;4.436;2023-07-24T10:24:56;6.95;;;2.88;;
31920;SDS011;66485;52.128;4.436;2023-07-24T10:27:24;6.05;;;3.30;;
31920;SDS011;66485;52.128;4.436;2023-07-24T10:30:00;8.90;;;2.63;;
31920;SDS011;66485;52.128;4.436;2023-07-24T10:32:30;7.88;;;2.92;;
31920;SDS011;66485;52.128;4.436;2023-07-24T10:34:59;10.30;;;3.10;;
31920;SDS011;66485;52.128;4.436;2023-07-24T10:37:40;6.53;;;2.80;;
31920;SDS011;66485;52.128;4.436;2023-07-24T10:40:05;4.80;;;2.75;;
31920;SDS011;66485;52.128;4.436;2023-07-24T10:42:31;6.18;;;3.30;;
31920;SDS011;66485;52.128;4.436;2023-07-24T10:45:16;3.88;;;2.60;;
31920;SDS011;66485;52.128;4.436;2023-07-24T10:47:42;5.75;;;2.83;;
31920;SDS011;66485;52.128;4.436;2023-07-24T10:50:07;4.00;;;2.65;;
31920;SDS011;66485;52.128;4.436;2023-07-24T10:52:33;6.68;;;3.00;;
31920;SDS011;66485;52.128;4.436;2023-07-24T10:55:02;7.00;;;3.13;;
31920;SDS011;66485;52.128;4.436;2023-07-24T10:57:31;5.43;;;3.13;;
31920;SDS011;66485;52.128;4.436;2023-07-24T10:59:57;6.65;;;2.78;;
31920;SDS011;66485;52.128;4.436;2023-07-24T11:02:22;5.93;;;2.80;;
31920;SDS011;66485;52.128;4.436;2023-07-24T11:04:48;6.78;;;3.00;;
31920;SDS011;66485;52.128;4.436;2023-07-24T11:07:14;9.85;;;2.92;;
31920;SDS011;66485;52.128;4.436;2023-07-24T11:09:40;5.00;;;2.50;;
31920;SDS011;66485;52.128;4.436;2023-07-24T11:12:11;6.50;;;2.80;;
31920;SDS011;66485;52.128;4.436;2023-07-24T11:14:51;5.22;;;3.17;;
31920;SDS011;66485;52.128;4.436;2023-07-24T11:17:20;5.60;;;2.80;;
31920;SDS011;66485;52.128;4.436;2023-07-24T11:19:45;4.47;;;2.83;;
31920;SDS011;66485;52.128;4.436;2023-07-24T11:22:11;4.25;;;2.90;;
31920;SDS011;66485;52.128;4.436;2023-07-24T11:24:43;4.22;;;2.40;;
31920;SDS011;66485;52.128;4.436;2023-07-24T11:27:14;5.80;;;2.58;;
31920;SDS011;66485;52.128;4.436;2023-07-24T11:29:48;5.30;;;2.70;;
31920;SDS011;66485;52.128;4.436;2023-07-24T11:32:22;3.85;;;2.60;;
31920;SDS011;66485;52.128;4.436;2023-07-24T11:34:51;6.65;;;2.50;;
31920;SDS011;66485;52.128;4.436;2023-07-24T11:37:17;5.32;;;2.85;;
31920;SDS011;66485;52.128;4.436;2023-07-24T11:39:54;3.95;;;2.88;;
31920;SDS011;66485;52.128;4.436;2023-07-24T11:42:26;3.00;;;2.38;;
31920;SDS011;66485;52.128;4.436;2023-07-24T11:44:52;4.63;;;2.90;;
31920;SDS011;66485;52.128;4.436;2023-07-24T11:47:18;4.93;;;2.85;;
31920;SDS011;66485;52.128;4.436;2023-07-24T11:49:43;6.22;;;2.40;;
31920;SDS011;66485;52.128;4.436;2023-07-24T11:52:13;5.43;;;2.38;;
31920;SDS011;66485;52.128;4.436;2023-07-24T11:54:39;7.65;;;2.83;;
31920;SDS011;66485;52.128;4.436;2023-07-24T11:57:14;5.43;;;2.72;;
31920;SDS011;66485;52.128;4.436;2023-07-24T11:59:42;12.00;;;2.67;;
31920;SDS011;66485;52.128;4.436;2023-07-24T12:02:11;4.07;;;2.78;;
31920;SDS011;66485;52.128;4.436;2023-07-24T12:04:36;5.78;;;2.42;;
31920;SDS011;66485;52.128;4.436;2023-07-24T12:07:11;4.60;;;2.53;;
31920;SDS011;66485;52.128;4.436;2023-07-24T12:09:37;4.00;;;2.40;;
31920;SDS011;66485;52.128;4.436;2023-07-24T12:12:05;4.30;;;2.47;;
31920;SDS011;66485;52.128;4.436;2023-07-24T12:17:02;8.23;;;2.83;;
31920;SDS011;66485;52.128;4.436;2023-07-24T12:19:28;3.95;;;2.70;;
31920;SDS011;66485;52.128;4.436;2023-07-24T12:21:53;5.50;;;2.72;;
31920;SDS011;66485;52.128;4.436;2023-07-24T12:24:19;6.38;;;3.42;;
31920;SDS011;66485;52.128;4.436;2023-07-24T12:26:44;7.72;;;4.03;;
31920;SDS011;66485;52.128;4.436;2023-07-24T12:29:09;11.00;;;4.65;;
31920;SDS011;66485;52.128;4.436;2023-07-24T12:31:35;11.02;;;4.63;;
31920;SDS011;66485;52.128;4.436;2023-07-24T12:34:00;9.27;;;4.35;;
31920;SDS011;66485;52.128;4.436;2023-07-24T12:36:26;15.40;;;4.60;;
31920;SDS011;66485;52.128;4.436;2023-07-24T12:38:51;8.65;;;3.58;;
31920;SDS011;66485;52.128;4.436;2023-07-24T12:41:17;10.27;;;4.20;;
31920;SDS011;66485;52.128;4.436;2023-07-24T12:43:43;9.25;;;3.22;;
31920;SDS011;66485;52.128;4.436;2023-07-24T12:46:09;8.52;;;3.40;;
31920;SDS011;66485;52.128;4.436;2023-07-24T12:48:34;5.63;;;2.80;;
31920;SDS011;66485;52.128;4.436;2023-07-24T12:51:01;8.90;;;3.03;;
31920;SDS011;66485;52.128;4.436;2023-07-24T12:53:26;6.22;;;2.88;;
31920;SDS011;66485;52.128;4.436;2023-07-24T12:55:52;11.18;;;3.42;;
31920;SDS011;66485;52.128;4.436;2023-07-24T12:58:17;6.55;;;2.88;;
31920;SDS011;66485;52.128;4.436;2023-07-24T13:00:42;8.23;;;2.90;;
31920;SDS011;66485;52.128;4.436;2023-07-24T13:03:08;12.73;;;3.15;;
31920;SDS011;66485;52.128;4.436;2023-07-24T13:05:33;7.50;;;2.53;;
31920;SDS011;66485;52.128;4.436;2023-07-24T13:07:58;6.53;;;2.83;;
31920;SDS011;66485;52.128;4.436;2023-07-24T13:10:24;7.68;;;2.80;;
31920;SDS011;66485;52.128;4.436;2023-07-24T13:12:49;7.55;;;2.90;;
31920;SDS011;66485;52.128;4.436;2023-07-24T13:15:15;8.00;;;2.80;;
31920;SDS011;66485;52.128;4.436;2023-07-24T13:17:40;8.63;;;2.83;;
31920;SDS011;66485;52.128;4.436;2023-07-24T13:20:05;11.90;;;3.20;;
31920;SDS011;66485;52.128;4.436;2023-07-24T13:22:31;9.63;;;2.58;;
31920;SDS011;66485;52.128;4.436;2023-07-24T13:24:57;9.23;;;2.63;;
31920;SDS011;66485;52.128;4.436;2023-07-24T13:27:22;8.85;;;2.72;;
31920;SDS011;66485;52.128;4.436;2023-07-24T13:29:47;10.25;;;3.42;;
31920;SDS011;66485;52.128;4.436;2023-07-24T13:32:13;8.30;;;2.50;;
31920;SDS011;66485;52.128;4.436;2023-07-24T13:34:38;12.50;;;2.63;;
31920;SDS011;66485;52.128;4.436;2023-07-24T13:37:03;10.57;;;2.45;;
31920;SDS011;66485;52.128;4.436;2023-07-24T13:39:29;6.00;;;2.20;;
31920;SDS011;66485;52.128;4.436;2023-07-24T13:41:56;7.10;;;2.13;;
31920;SDS011;66485;52.128;4.436;2023-07-24T13:44:22;7.13;;;2.13;;
31920;SDS011;66485;52.128;4.436;2023-07-24T13:46:47;9.57;;;1.90;;
31920;SDS011;66485;52.128;4.436;2023-07-24T13:49:13;8.40;;;1.80;;
31920;SDS011;66485;52.128;4.436;2023-07-24T13:51:38;8.32;;;2.03;;
31920;SDS011;66485;52.128;4.436;2023-07-24T13:54:04;8.23;;;1.77;;
31920;SDS011;66485;52.128;4.436;2023-07-24T13:56:29;7.40;;;1.83;;
31920;SDS011;66485;52.128;4.436;2023-07-24T13:58:58;22.30;;;2.25;;
31920;SDS011;66485;52.128;4.436;2023-07-24T14:01:23;13.48;;;2.00;;
31920;SDS011;66485;52.128;4.436;2023-07-24T14:03:49;24.33;;;1.90;;
31920;SDS011;66485;52.128;4.436;2023-07-24T14:06:14;27.27;;;2.13;;
31920;SDS011;66485;52.128;4.436;2023-07-24T14:08:39;11.13;;;2.00;;
31920;SDS011;66485;52.128;4.436;2023-07-24T14:11:05;7.07;;;1.65;;
31920;SDS011;66485;52.128;4.436;2023-07-24T14:13:30;12.70;;;2.00;;
31920;SDS011;66485;52.128;4.436;2023-07-24T14:15:55;9.30;;;2.08;;
31920;SDS011;66485;52.128;4.436;2023-07-24T14:18:21;6.25;;;1.90;;
31920;SDS011;66485;52.128;4.436;2023-07-24T14:20:46;10.93;;;2.03;;
31920;SDS011;66485;52.128;4.436;2023-07-24T14:23:12;12.77;;;1.80;;
31920;SDS011;66485;52.128;4.436;2023-07-24T14:25:38;7.47;;;1.70;;
31920;SDS011;66485;52.128;4.436;2023-07-24T14:28:03;7.40;;;1.90;;
31920;SDS011;66485;52.128;4.436;2023-07-24T14:30:29;5.90;;;2.00;;
31920;SDS011;66485;52.128;4.436;2023-07-24T14:32:54;7.45;;;1.80;;
31920;SDS011;66485;52.128;4.436;2023-07-24T14:35:20;12.45;;;1.92;;
31920;SDS011;66485;52.128;4.436;2023-07-24T14:37:45;6.20;;;1.92;;
31920;SDS011;66485;52.128;4.436;2023-07-24T14:40:10;13.80;;;3.03;;
31920;SDS011;66485;52.128;4.436;2023-07-24T14:42:39;7.18;;;2.03;;
31920;SDS011;66485;52.128;4.436;2023-07-24T14:45:04;10.88;;;1.92;;
31920;SDS011;66485;52.128;4.436;2023-07-24T14:47:30;7.97;;;1.65;;
31920;SDS011;66485;52.128;4.436;2023-07-24T14:49:56;5.75;;;1.77;;
31920;SDS011;66485;52.128;4.436;2023-07-24T14:52:23;9.75;;;2.03;;
31920;SDS011;66485;52.128;4.436;2023-07-24T14:54:49;6.50;;;2.00;;
31920;SDS011;66485;52.128;4.436;2023-07-24T14:57:14;10.88;;;1.85;;
31920;SDS011;66485;52.128;4.436;2023-07-24T14:59:40;6.13;;;1.80;;